Parkers Prairie, MN

8:41 AM CDT on April 21, 2015 (GMT -0500)
APRSWXNET | | Change Station
CLOSE
Current Station
Personal Weather Station
Location: Vining, MN
Elevation: 1561 ft
Nearby Weather Stations

Elev 1561 ft 46.22 °N, 95.44 °W | Updated 25 minutes ago

Overcast
Overcast
32 °F
Feels Like 24 °F
N
9
Wind Variable Wind from NW
Gusts 18.0 mph

Today
High -- | Low -- °F
--% Chance of Precip.
Yesterday
High -- | Low -- °F
Precip. -- in
6:24 AM 8:16 PM
Waxing Crescent, 10% visible
Pressure 29.61 in
Visibility 0.8 miles
Clouds Few 1300 ft
Mostly Cloudy 2000 ft
Overcast 3100 ft
Windchill 24 °F
Dew Point 27 °F
Humidity 83%
Rainfall in
Snow Depth Not available.
UV 1 out of 12
Pollen 7.80 out of 12
Air Quality Not available.
Flu Activity Local Activity
SPECI KAXN 211337Z AUTO 33020G31KT 3/4SM -SN FEW013 BKN020 OVC031 00/M03 A2961 RMK AO2 PK WND 30031/1330 SNB27 P0001 T00001028

More Conditions Fewer Conditions

Pressure 29.61 in
Visibility 0.8 miles
Clouds Few 1300 ft
Mostly Cloudy 2000 ft
Overcast 3100 ft
Windchill 24 °F
Dew Point 27 °F
Humidity 83%
Rainfall in
Snow Depth Not available.
UV 1 out of 12
Pollen 7.80 out of 12
Air Quality Not available.
Flu Activity Local Activity
SPECI KAXN 211337Z AUTO 33020G31KT 3/4SM -SN FEW013 BKN020 OVC031 00/M03 A2961 RMK AO2 PK WND 30031/1330 SNB27 P0001 T00001028

More Conditions Fewer Conditions

10-Day Weather Forecast

Almanac

Astronomy

Apr. 21, 2015 Rise Set
Actual Time
Civil Twilight
Nautical Twilight
Astronomical Twilight
Moon
Length of Visible Light
Length of Day
Tomorrow will be .
, % of the Moon is Illuminated

Today's Extremes

State Highs State Lows

Community

WunderPhotos

Upload Photos

1,815,383 photos uploaded!

WunderBlogs® & News

Nearby

Air Quality

  Air Quality AQ Index Pollutant
Not available.

Snow Depth

Station Depth Elevation

Earthquake Activity

City Distance Mag. Time & Date
Minimum magnitude displayed is 2.5.

Coastal Water Temperatures

Place Temperature

Stations

Nearby Weather Stations

Station Location Temp. Windchill Dew Point Humidity Wind Precip. Elev Updated Type